Time;durP1;ratioP1;P1;durP2;ratioP2;P2;SDS_P1;SDS_P2;PMS_P1;PMS_P2;Temp;Humidity;BMP_temperature;BMP_pressure;BME280_temperature;BME280_humidity;BME280_pressure;Samples;Min_cycle;Max_cycle;Signal;HPM_P1;HPM_P2
2022/12/05 00:00:54;;;;;;;;;;;;;;;;;;5007108;28;19928;-64
2022/12/05 00:03:22;;;;;;;;;;;;;;;;;;5020419;28;20046;-65
2022/12/05 00:05:50;;;;;;;;;;;;;;;;;;5006286;28;19924;-68
2022/12/05 00:08:15;;;;;;;;;;;;;;;;;;5024421;28;20326;-64
2022/12/05 00:10:42;;;;;;;;;;;;;;;;;;5041748;28;20307;-65
2022/12/05 00:13:07;;;;;;;;;;;;;;;;;;5022573;28;19931;-65
2022/12/05 00:15:33;;;;;;;;;;;;;;;;;;5022170;28;20016;-66
2022/12/05 00:17:58;;;;;;;;;;;;;;;;;;5024796;28;21445;-65
2022/12/05 00:20:23;;;;;;;;;;;;;;;;;;5043257;28;19920;-66
2022/12/05 00:22:51;;;;;;;;;;;;;;;;;;5044611;28;19920;-64
2022/12/05 00:25:19;;;;;;;;;;;;;;;;;;5022739;28;19945;-64
2022/12/05 00:27:44;;;;;;;;;;;;;;;;;;5043982;28;19955;-63
2022/12/05 00:30:12;;;;;;;;;;;;;;;;;;5023922;28;19912;-63
2022/12/05 00:32:38;;;;;;;;;;;;;;;;;;5022776;28;19959;-64
2022/12/05 00:35:06;;;;;;;;;;;;;;;;;;5044488;28;20126;-63
2022/12/05 00:37:31;;;;;;;;;;;;;;;;;;5025898;28;19931;-64
2022/12/05 00:40:00;;;;;;;;;;;;;;;;;;5023906;28;20068;-64
2022/12/05 00:42:27;;;;;;;;;;;;;;;;;;5034845;28;20287;-63
2022/12/05 00:44:57;;;;;;;;;;;;;;;;;;5004316;28;20140;-64
2022/12/05 00:47:23;;;;;;;;;;;;;;;;;;5002702;28;19920;-63
2022/12/05 00:49:48;;;;;;;;;;;;;;;;;;5002643;28;19923;-65
2022/12/05 00:52:13;;;;;;;;;;;;;;;;;;5024585;28;20406;-65
2022/12/05 00:54:41;;;;;;;;;;;;;;;;;;5037022;28;19916;-64
2022/12/05 00:57:07;;;;;;;;;;;;;;;;;;5038777;28;19924;-65
2022/12/05 00:59:33;;;;;;;;;;;;;;;;;;5039593;28;20622;-64
2022/12/05 01:02:01;;;;;;;;;;;;;;;;;;5007250;28;19920;-64
2022/12/05 01:04:26;;;;;;;;;;;;;;;;;;5018740;28;20405;-64
2022/12/05 01:06:51;;;;;;;;;;;;;;;;;;5018422;28;20469;-64
2022/12/05 01:09:21;;;;;;;;;;;;;;;;;;5048392;28;19920;-64
2022/12/05 01:11:49;;;;;;;;;;;;;;;;;;5037440;28;20307;-65
2022/12/05 01:14:17;;;;;;;;;;;;;;;;;;5059620;28;19920;-63
2022/12/05 01:16:43;;;;;;;;;;;;;;;;;;5041428;28;19955;-64
2022/12/05 01:19:10;;;;;;;;;;;;;;;;;;5056566;28;19924;-63
2022/12/05 01:21:38;;;;;;;;;;;;;;;;;;5061280;28;19939;-63
2022/12/05 01:24:06;;;;;;;;;;;;;;;;;;5040901;28;19916;-64
2022/12/05 01:26:31;;;;;;;;;;;;;;;;;;5040736;28;20386;-62
2022/12/05 01:28:59;;;;;;;;;;;;;;;;;;5040609;28;19931;-65
2022/12/05 01:31:24;;;;;;;;;;;;;;;;;;5053432;28;21473;-64
2022/12/05 01:33:51;;;;;;;;;;;;;;;;;;5057217;28;20009;-64
2022/12/05 01:36:18;;;;;;;;;;;;;;;;;;5056891;28;20011;-66
2022/12/05 01:38:45;;;;;;;;;;;;;;;;;;5057346;28;19920;-66
2022/12/05 01:41:11;;;;;;;;;;;;;;;;;;5056198;28;19921;-63
2022/12/05 01:43:39;;;;;;;;;;;;;;;;;;5054263;28;20081;-65
2022/12/05 01:46:08;;;;;;;;;;;;;;;;;;5052263;28;19920;-64
2022/12/05 01:48:33;;;;;;;;;;;;;;;;;;5021555;28;20240;-64
2022/12/05 01:51:00;;;;;;;;;;;;;;;;;;5041584;28;20440;-64
2022/12/05 01:53:27;;;;;;;;;;;;;;;;;;5060700;28;19920;-64
2022/12/05 01:55:53;;;;;;;;;;;;;;;;;;5058046;28;19990;-64
2022/12/05 01:58:18;;;;;;;;;;;;;;;;;;5037177;28;19999;-63
2022/12/05 02:00:46;;;;;;;;;;;;;;;;;;5024105;28;20631;-66
2022/12/05 02:03:11;;;;;;;;;;;;;;;;;;5058965;28;20348;-63
2022/12/05 02:05:37;;;;;;;;;;;;;;;;;;5039763;28;20046;-65
2022/12/05 02:08:02;;;;;;;;;;;;;;;;;;5052815;28;19966;-65
2022/12/05 02:10:30;;;;;;;;;;;;;;;;;;5058725;28;19955;-65
2022/12/05 02:12:55;;;;;;;;;;;;;;;;;;5043305;28;19921;-66
2022/12/05 02:15:21;;;;;;;;;;;;;;;;;;5039910;28;19929;-65
2022/12/05 02:17:46;;;;;;;;;;;;;;;;;;5060111;28;20514;-64
2022/12/05 02:20:16;;;;;;;;;;;;;;;;;;5054443;28;21841;-64
2022/12/05 02:22:41;;;;;;;;;;;;;;;;;;5054008;28;20268;-63
2022/12/05 02:25:07;;;;;;;;;;;;;;;;;;5037568;28;19954;-65
2022/12/05 02:27:35;;;;;;;;;;;;;;;;;;5042806;28;20003;-64
2022/12/05 02:30:00;;;;;;;;;;;;;;;;;;5042330;28;19927;-65
2022/12/05 02:32:25;;;;;;;;;;;;;;;;;;5058555;28;19916;-64
2022/12/05 02:34:51;;;;;;;;;;;;;;;;;;5025099;28;19930;-66
2022/12/05 02:37:16;;;;;;;;;;;;;;;;;;5057099;28;20021;-65
2022/12/05 02:39:42;;;;;;;;;;;;;;;;;;5017803;28;19920;-61
2022/12/05 02:42:07;;;;;;;;;;;;;;;;;;5020716;28;19927;-65
2022/12/05 02:44:33;;;;;;;;;;;;;;;;;;5023294;28;20676;-64
2022/12/05 02:46:58;;;;;;;;;;;;;;;;;;5055830;28;24969;-64
2022/12/05 02:49:26;;;;;;;;;;;;;;;;;;5056674;28;19993;-64
2022/12/05 02:51:51;;;;;;;;;;;;;;;;;;5039527;28;19919;-65
2022/12/05 02:54:17;;;;;;;;;;;;;;;;;;5059584;28;20729;-63
2022/12/05 02:56:44;;;;;;;;;;;;;;;;;;5058235;28;19919;-64
2022/12/05 02:59:10;;;;;;;;;;;;;;;;;;5019485;28;19920;-65
2022/12/05 03:01:36;;;;;;;;;;;;;;;;;;5056103;28;19927;-64
2022/12/05 03:04:03;;;;;;;;;;;;;;;;;;5025268;28;19962;-64
2022/12/05 03:06:29;;;;;;;;;;;;;;;;;;5055472;28;19924;-65
2022/12/05 03:08:55;;;;;;;;;;;;;;;;;;5042149;28;20417;-64
2022/12/05 03:11:20;;;;;;;;;;;;;;;;;;5052882;28;19916;-65
2022/12/05 03:13:46;;;;;;;;;;;;;;;;;;5037552;28;19924;-65
2022/12/05 03:16:11;;;;;;;;;;;;;;;;;;4956416;28;20268;-66
2022/12/05 03:18:39;;;;;;;;;;;;;;;;;;5054985;28;20055;-65
2022/12/05 03:21:05;;;;;;;;;;;;;;;;;;4973995;28;19924;-64
2022/12/05 03:23:30;;;;;;;;;;;;;;;;;;5057531;28;20111;-64
2022/12/05 03:25:58;;;;;;;;;;;;;;;;;;5057714;28;19920;-65
2022/12/05 03:28:26;;;;;;;;;;;;;;;;;;5058208;28;19955;-64
2022/12/05 03:30:54;;;;;;;;;;;;;;;;;;4969462;28;19966;-64
2022/12/05 03:33:20;;;;;;;;;;;;;;;;;;5057974;28;20753;-64
2022/12/05 03:35:45;;;;;;;;;;;;;;;;;;4972173;28;19924;-64
2022/12/05 03:38:11;;;;;;;;;;;;;;;;;;4972087;28;20443;-62
2022/12/05 03:40:38;;;;;;;;;;;;;;;;;;4963222;28;19957;-63
2022/12/05 03:43:04;;;;;;;;;;;;;;;;;;4971908;28;20570;-64
2022/12/05 03:45:29;;;;;;;;;;;;;;;;;;4971249;28;19920;-63
2022/12/05 03:47:55;;;;;;;;;;;;;;;;;;5060184;28;20321;-63
2022/12/05 03:50:23;;;;;;;;;;;;;;;;;;5061632;28;21879;-64
2022/12/05 03:52:48;;;;;;;;;;;;;;;;;;5063181;28;20007;-63
2022/12/05 03:55:14;;;;;;;;;;;;;;;;;;4975847;28;19988;-62
2022/12/05 03:57:42;;;;;;;;;;;;;;;;;;4973668;28;19920;-62
2022/12/05 04:00:08;;;;;;;;;;;;;;;;;;5062334;28;20015;-64
2022/12/05 04:02:33;;;;;;;;;;;;;;;;;;4975322;28;19920;-64
2022/12/05 04:04:58;;;;;;;;;;;;;;;;;;4972610;28;20561;-63
2022/12/05 04:07:24;;;;;;;;;;;;;;;;;;5056483;28;20631;-63
2022/12/05 04:09:49;;;;;;;;;;;;;;;;;;4974024;28;21962;-64
2022/12/05 04:12:17;;;;;;;;;;;;;;;;;;5062184;28;20279;-62
2022/12/05 04:14:42;;;;;;;;;;;;;;;;;;4961971;28;19920;-61
2022/12/05 04:17:08;;;;;;;;;;;;;;;;;;5060157;28;19928;-62
2022/12/05 04:21:37;;;;;;;;;;;;;;;;;;4978141;28;20326;-63
2022/12/05 04:22:21;;;;;;;;;;;;;;;;;;5063938;28;19927;-65
2022/12/05 04:27:30;;;;;;;;;;;;;;;;;;4975614;28;19920;-62
2022/12/05 04:29:56;;;;;;;;;;;;;;;;;;5060450;28;20658;-63
2022/12/05 04:32:21;;;;;;;;;;;;;;;;;;4970359;28;20015;-63
2022/12/05 04:34:49;;;;;;;;;;;;;;;;;;5060531;28;19954;-63
2022/12/05 04:37:15;;;;;;;;;;;;;;;;;;5061131;28;19923;-67
2022/12/05 04:39:40;;;;;;;;;;;;;;;;;;4955366;28;19916;-62
2022/12/05 04:42:05;;;;;;;;;;;;;;;;;;5060579;28;19920;-64
2022/12/05 04:44:31;;;;;;;;;;;;;;;;;;4972504;28;20300;-63
2022/12/05 04:46:56;;;;;;;;;;;;;;;;;;5058310;28;20225;-63
2022/12/05 04:49:21;;;;;;;;;;;;;;;;;;4977644;28;19924;-63
2022/12/05 04:51:47;;;;;;;;;;;;;;;;;;5062113;28;19947;-63
2022/12/05 04:54:15;;;;;;;;;;;;;;;;;;4973625;28;19920;-62
2022/12/05 04:56:41;;;;;;;;;;;;;;;;;;5062457;28;20779;-62
2022/12/05 04:59:06;;;;;;;;;;;;;;;;;;4976747;28;19942;-61
2022/12/05 05:01:32;;;;;;;;;;;;;;;;;;4959166;28;19920;-62
2022/12/05 05:03:57;;;;;;;;;;;;;;;;;;5058767;28;20275;-63
2022/12/05 05:06:23;;;;;;;;;;;;;;;;;;4973007;28;20492;-64
2022/12/05 05:08:49;;;;;;;;;;;;;;;;;;4972407;28;19928;-64
2022/12/05 05:11:14;;;;;;;;;;;;;;;;;;4977211;28;19920;-63
2022/12/05 05:13:39;;;;;;;;;;;;;;;;;;5042357;28;19927;-63
2022/12/05 05:16:05;;;;;;;;;;;;;;;;;;4970018;28;20291;-63
2022/12/05 05:18:30;;;;;;;;;;;;;;;;;;4974474;28;20135;-63
2022/12/05 05:20:56;;;;;;;;;;;;;;;;;;5059401;28;20631;-62
2022/12/05 05:23:21;;;;;;;;;;;;;;;;;;4972830;28;20159;-63
2022/12/05 05:25:46;;;;;;;;;;;;;;;;;;4973365;28;20669;-63
2022/12/05 05:28:11;;;;;;;;;;;;;;;;;;5062614;28;19916;-62
2022/12/05 05:30:37;;;;;;;;;;;;;;;;;;5056709;28;19985;-63
2022/12/05 05:33:02;;;;;;;;;;;;;;;;;;5058973;28;19924;-63
2022/12/05 05:35:30;;;;;;;;;;;;;;;;;;4957690;28;19924;-63
2022/12/05 05:37:58;;;;;;;;;;;;;;;;;;5057796;28;20003;-61
2022/12/05 05:40:26;;;;;;;;;;;;;;;;;;4975263;28;19920;-64
2022/12/05 05:42:52;;;;;;;;;;;;;;;;;;4956514;28;20303;-62
2022/12/05 05:45:18;;;;;;;;;;;;;;;;;;4969797;28;19972;-63
2022/12/05 05:47:44;;;;;;;;;;;;;;;;;;5036895;28;20102;-61
2022/12/05 05:50:12;;;;;;;;;;;;;;;;;;4975647;28;19968;-62
2022/12/05 05:52:37;;;;;;;;;;;;;;;;;;4964066;28;20116;-63
2022/12/05 05:55:03;;;;;;;;;;;;;;;;;;5060344;28;20827;-62
2022/12/05 05:57:30;;;;;;;;;;;;;;;;;;4976377;28;20379;-62
2022/12/05 05:59:56;;;;;;;;;;;;;;;;;;5060213;28;19927;-62
2022/12/05 06:02:23;;;;;;;;;;;;;;;;;;5059393;28;20385;-62
2022/12/05 06:04:48;;;;;;;;;;;;;;;;;;4971505;28;19920;-62
2022/12/05 06:07:14;;;;;;;;;;;;;;;;;;5056357;28;19989;-63
2022/12/05 06:09:39;;;;;;;;;;;;;;;;;;5054422;28;20046;-62
2022/12/05 06:12:05;;;;;;;;;;;;;;;;;;4971553;28;20341;-62
2022/12/05 06:14:31;;;;;;;;;;;;;;;;;;5056487;28;19922;-62
2022/12/05 06:16:56;;;;;;;;;;;;;;;;;;5058079;28;19924;-62
2022/12/05 06:19:22;;;;;;;;;;;;;;;;;;4971878;28;20529;-62
2022/12/05 06:21:48;;;;;;;;;;;;;;;;;;5057308;28;20667;-62
2022/12/05 06:24:13;;;;;;;;;;;;;;;;;;5056872;28;19999;-62
2022/12/05 06:26:38;;;;;;;;;;;;;;;;;;4970434;28;19920;-61
2022/12/05 06:29:03;;;;;;;;;;;;;;;;;;5054286;28;20029;-61
2022/12/05 06:31:32;;;;;;;;;;;;;;;;;;4968830;28;20066;-61
2022/12/05 06:33:57;;;;;;;;;;;;;;;;;;4965377;28;20787;-61
2022/12/05 06:36:25;;;;;;;;;;;;;;;;;;4972317;28;20041;-61
2022/12/05 06:38:53;;;;;;;;;;;;;;;;;;4952937;28;20108;-60
2022/12/05 06:41:19;;;;;;;;;;;;;;;;;;4972452;28;20203;-62
2022/12/05 06:43:44;;;;;;;;;;;;;;;;;;4966317;28;20371;-61
2022/12/05 06:46:10;;;;;;;;;;;;;;;;;;5057937;28;19920;-62
2022/12/05 06:48:35;;;;;;;;;;;;;;;;;;5054550;28;19923;-59
2022/12/05 06:51:01;;;;;;;;;;;;;;;;;;4970586;28;19920;-60
2022/12/05 06:53:26;;;;;;;;;;;;;;;;;;5059427;28;19924;-61
2022/12/05 06:55:52;;;;;;;;;;;;;;;;;;4973399;28;19920;-60
2022/12/05 06:58:19;;;;;;;;;;;;;;;;;;4987933;28;20290;-61
2022/12/05 07:03:28;;;;;;;;;;;;;;;;;;4973088;28;20384;-60
2022/12/05 07:05:54;;;;;;;;;;;;;;;;;;5059654;28;19920;-61
2022/12/05 07:08:19;;;;;;;;;;;;;;;;;;4960429;28;19994;-61
2022/12/05 07:10:45;;;;;;;;;;;;;;;;;;5040420;28;19928;-60
2022/12/05 07:13:12;;;;;;;;;;;;;;;;;;5036666;28;20640;-60
2022/12/05 07:15:37;;;;;;;;;;;;;;;;;;5034349;28;19931;-61
2022/12/05 07:18:03;;;;;;;;;;;;;;;;;;5038270;28;19920;-62
2022/12/05 07:20:28;;;;;;;;;;;;;;;;;;5024143;28;19920;-60
2022/12/05 07:22:54;;;;;;;;;;;;;;;;;;5042705;28;19931;-62
2022/12/05 07:25:21;;;;;;;;;;;;;;;;;;5042674;28;19973;-61
2022/12/05 07:27:49;;;;;;;;;;;;;;;;;;5039981;28;19921;-62
2022/12/05 07:30:16;;;;;;;;;;;;;;;;;;5024768;28;19932;-61
2022/12/05 07:32:44;;;;;;;;;;;;;;;;;;5020556;28;19916;-62
2022/12/05 07:35:09;;;;;;;;;;;;;;;;;;5021084;28;19935;-61
2022/12/05 07:37:36;;;;;;;;;;;;;;;;;;5043546;28;19924;-61
2022/12/05 07:40:03;;;;;;;;;;;;;;;;;;5021471;28;20015;-60
2022/12/05 07:42:29;;;;;;;;;;;;;;;;;;5003608;28;19920;-62
2022/12/05 07:44:54;;;;;;;;;;;;;;;;;;5024174;28;19923;-61
2022/12/05 07:47:19;;;;;;;;;;;;;;;;;;5019168;28;19916;-61
2022/12/05 07:49:48;;;;;;;;;;;;;;;;;;5020687;28;20338;-63
2022/12/05 07:52:15;;;;;;;;;;;;;;;;;;5026552;28;19921;-62
2022/12/05 07:54:45;;;;;;;;;;;;;;;;;;5019488;28;19943;-63
2022/12/05 07:57:11;;;;;;;;;;;;;;;;;;5023413;28;19924;-61
2022/12/05 07:59:36;;;;;;;;;;;;;;;;;;5005117;28;20017;-61
2022/12/05 08:02:01;;;;;;;;;;;;;;;;;;5040670;28;19916;-62
2022/12/05 08:04:27;;;;;;;;;;;;;;;;;;5023124;28;19923;-62
2022/12/05 08:06:53;;;;;;;;;;;;;;;;;;5021582;28;20326;-61
2022/12/05 08:09:18;;;;;;;;;;;;;;;;;;5021384;28;20091;-61
2022/12/05 08:11:44;;;;;;;;;;;;;;;;;;5023267;28;20420;-62
2022/12/05 08:14:09;;;;;;;;;;;;;;;;;;5022547;28;19917;-62
2022/12/05 08:16:35;;;;;;;;;;;;;;;;;;5040481;28;20329;-62
2022/12/05 08:19:00;;;;;;;;;;;;;;;;;;5041334;28;19917;-62
2022/12/05 08:21:26;;;;;;;;;;;;;;;;;;5027517;28;20009;-62
2022/12/05 08:23:51;;;;;;;;;;;;;;;;;;5025364;28;19939;-61
2022/12/05 08:26:19;;;;;;;;;;;;;;;;;;5026181;28;20418;-60
2022/12/05 08:28:47;;;;;;;;;;;;;;;;;;5024609;28;20026;-62
2022/12/05 08:31:15;;;;;;;;;;;;;;;;;;5042140;28;19921;-60
2022/12/05 08:33:43;;;;;;;;;;;;;;;;;;5043158;28;20541;-62
2022/12/05 08:36:09;;;;;;;;;;;;;;;;;;5042499;28;19924;-59
2022/12/05 08:38:36;;;;;;;;;;;;;;;;;;5025778;28;20721;-61
2022/12/05 08:41:04;;;;;;;;;;;;;;;;;;5007595;28;20031;-61
2022/12/05 08:43:29;;;;;;;;;;;;;;;;;;5042736;28;19928;-61
2022/12/05 08:45:57;;;;;;;;;;;;;;;;;;5008617;28;19960;-61
2022/12/05 08:48:25;;;;;;;;;;;;;;;;;;5046007;28;19916;-61
2022/12/05 08:50:51;;;;;;;;;;;;;;;;;;5025869;28;19923;-60
2022/12/05 08:53:16;;;;;;;;;;;;;;;;;;5008664;28;20513;-60
2022/12/05 08:55:41;;;;;;;;;;;;;;;;;;5022816;28;20376;-60
2022/12/05 08:58:09;;;;;;;;;;;;;;;;;;5025433;28;20509;-60
2022/12/05 09:00:39;;;;;;;;;;;;;;;;;;5027459;28;20482;-61
2022/12/05 09:03:07;;;;;;;;;;;;;;;;;;5042303;28;19920;-59
2022/12/05 09:05:32;;;;;;;;;;;;;;;;;;5040942;28;19920;-60
2022/12/05 09:07:58;;;;;;;;;;;;;;;;;;5036620;28;19924;-60
2022/12/05 09:10:26;;;;;;;;;;;;;;;;;;5009149;28;19987;-60
2022/12/05 09:12:51;;;;;;;;;;;;;;;;;;5022853;28;20380;-61
2022/12/05 09:15:17;;;;;;;;;;;;;;;;;;5008418;28;20014;-59
2022/12/05 09:17:44;;;;;;;;;;;;;;;;;;5020523;28;20035;-59
2022/12/05 09:20:12;;;;;;;;;;;;;;;;;;5024460;28;19927;-61
2022/12/05 09:22:38;;;;;;;;;;;;;;;;;;5039478;28;19916;-60
2022/12/05 09:25:03;;;;;;;;;;;;;;;;;;5022701;28;19952;-60
2022/12/05 09:27:29;;;;;;;;;;;;;;;;;;5039860;28;20145;-59
2022/12/05 09:29:55;;;;;;;;;;;;;;;;;;5042126;28;19960;-59
2022/12/05 09:32:20;;;;;;;;;;;;;;;;;;5038820;28;19916;-61
2022/12/05 09:34:45;;;;;;;;;;;;;;;;;;5022316;28;20007;-61
2022/12/05 09:37:11;;;;;;;;;;;;;;;;;;5021629;28;19985;-61
2022/12/05 09:39:39;;;;;;;;;;;;;;;;;;5022590;28;20393;-61
2022/12/05 09:42:04;;;;;;;;;;;;;;;;;;5043132;28;19921;-62
2022/12/05 09:44:31;;;;;;;;;;;;;;;;;;5020547;28;20213;-61
2022/12/05 09:46:57;;;;;;;;;;;;;;;;;;5036509;28;20379;-62
2022/12/05 09:49:26;;;;;;;;;;;;;;;;;;5043421;28;20573;-61
2022/12/05 09:51:52;;;;;;;;;;;;;;;;;;5025697;28;19920;-61
2022/12/05 09:54:17;;;;;;;;;;;;;;;;;;5007067;28;20455;-61
2022/12/05 09:56:43;;;;;;;;;;;;;;;;;;5023477;28;20456;-60
2022/12/05 09:59:08;;;;;;;;;;;;;;;;;;5024929;28;20042;-61
2022/12/05 10:01:34;;;;;;;;;;;;;;;;;;5019238;28;20131;-60
2022/12/05 10:04:01;;;;;;;;;;;;;;;;;;5025049;28;19960;-61
2022/12/05 10:06:29;;;;;;;;;;;;;;;;;;5008361;28;20671;-60
2022/12/05 10:08:55;;;;;;;;;;;;;;;;;;5042242;28;20109;-61
2022/12/05 10:11:20;;;;;;;;;;;;;;;;;;5035396;28;19924;-61
2022/12/05 10:13:45;;;;;;;;;;;;;;;;;;5040634;28;20376;-60
2022/12/05 10:16:13;;;;;;;;;;;;;;;;;;5038851;28;20264;-60
2022/12/05 10:18:39;;;;;;;;;;;;;;;;;;5036336;28;19923;-61
2022/12/05 10:21:04;;;;;;;;;;;;;;;;;;5041554;28;20045;-61
2022/12/05 10:23:33;;;;;;;;;;;;;;;;;;5042788;28;19923;-61
2022/12/05 10:25:58;;;;;;;;;;;;;;;;;;5025158;28;19921;-61
2022/12/05 10:28:24;;;;;;;;;;;;;;;;;;5022449;28;20018;-61
2022/12/05 10:30:49;;;;;;;;;;;;;;;;;;5038754;28;19924;-62
2022/12/05 10:33:14;;;;;;;;;;;;;;;;;;5006645;28;19924;-61
2022/12/05 10:35:40;;;;;;;;;;;;;;;;;;5023444;28;20490;-61
2022/12/05 10:38:08;;;;;;;;;;;;;;;;;;5041699;28;20544;-62
2022/12/05 10:40:36;;;;;;;;;;;;;;;;;;5043056;28;19921;-60
2022/12/05 10:43:01;;;;;;;;;;;;;;;;;;5039404;28;20183;-62
2022/12/05 10:45:26;;;;;;;;;;;;;;;;;;5022979;28;19921;-62
2022/12/05 10:47:52;;;;;;;;;;;;;;;;;;5004053;28;19927;-58
2022/12/05 10:50:17;;;;;;;;;;;;;;;;;;5023559;28;19950;-61
2022/12/05 10:52:45;;;;;;;;;;;;;;;;;;5039671;28;19952;-60
2022/12/05 10:55:11;;;;;;;;;;;;;;;;;;5041147;28;19920;-59
2022/12/05 10:57:39;;;;;;;;;;;;;;;;;;5024402;28;20292;-59
2022/12/05 11:00:04;;;;;;;;;;;;;;;;;;5022800;28;20623;-60
2022/12/05 11:02:30;;;;;;;;;;;;;;;;;;5013680;28;19916;-61
2022/12/05 11:04:57;;;;;;;;;;;;;;;;;;5039003;28;20683;-61
2022/12/05 11:07:22;;;;;;;;;;;;;;;;;;5038547;28;19916;-60
2022/12/05 11:09:50;;;;;;;;;;;;;;;;;;5046736;28;19930;-60
2022/12/05 11:12:18;;;;;;;;;;;;;;;;;;5036233;28;19916;-60
2022/12/05 11:14:43;;;;;;;;;;;;;;;;;;5039592;28;19927;-61
2022/12/05 11:17:08;;;;;;;;;;;;;;;;;;5054481;28;19928;-61
2022/12/05 11:19:34;;;;;;;;;;;;;;;;;;5053752;28;19920;-60
2022/12/05 11:22:00;;;;;;;;;;;;;;;;;;5053718;28;19942;-60
2022/12/05 11:24:28;;;;;;;;;;;;;;;;;;5020835;28;21506;-60
2022/12/05 11:26:53;;;;;;;;;;;;;;;;;;5043610;28;20033;-62
2022/12/05 11:29:19;;;;;;;;;;;;;;;;;;5059596;28;20386;-61
2022/12/05 11:31:44;;;;;;;;;;;;;;;;;;5043855;28;21688;-60
2022/12/05 11:34:10;;;;;;;;;;;;;;;;;;5045718;28;19955;-61
2022/12/05 11:36:35;;;;;;;;;;;;;;;;;;5026743;28;19951;-60
2022/12/05 11:39:03;;;;;;;;;;;;;;;;;;5051209;28;20026;-59
2022/12/05 11:41:31;;;;;;;;;;;;;;;;;;5040577;28;20261;-60
2022/12/05 11:43:56;;;;;;;;;;;;;;;;;;5041520;28;19930;-61
2022/12/05 11:46:21;;;;;;;;;;;;;;;;;;5017673;28;22204;-61
2022/12/05 11:48:49;;;;;;;;;;;;;;;;;;5020879;28;20586;-59
2022/12/05 11:51:15;;;;;;;;;;;;;;;;;;5050447;28;19916;-60
2022/12/05 11:53:40;;;;;;;;;;;;;;;;;;5020521;28;20307;-60
2022/12/05 11:56:05;;;;;;;;;;;;;;;;;;5036178;28;19924;-60
2022/12/05 11:58:31;;;;;;;;;;;;;;;;;;5054453;28;19955;-60
2022/12/05 12:00:59;;;;;;;;;;;;;;;;;;5039547;28;19924;-59
2022/12/05 12:03:26;;;;;;;;;;;;;;;;;;5038465;28;19966;-60
2022/12/05 12:05:51;;;;;;;;;;;;;;;;;;5056061;28;20519;-59
2022/12/05 12:08:16;;;;;;;;;;;;;;;;;;5031978;28;20379;-60
2022/12/05 12:10:42;;;;;;;;;;;;;;;;;;4980962;28;19928;-60
2022/12/05 12:13:07;;;;;;;;;;;;;;;;;;4953736;28;20817;-60
2022/12/05 12:15:35;;;;;;;;;;;;;;;;;;5053594;28;19920;-60
2022/12/05 12:18:01;;;;;;;;;;;;;;;;;;5054333;28;19971;-59
2022/12/05 12:20:26;;;;;;;;;;;;;;;;;;4972720;28;19916;-61
2022/12/05 12:22:54;;;;;;;;;;;;;;;;;;4984437;28;20423;-60
2022/12/05 12:25:22;;;;;;;;;;;;;;;;;;5058267;28;19920;-60
2022/12/05 12:27:50;;;;;;;;;;;;;;;;;;4967281;28;19997;-62
2022/12/05 12:30:15;;;;;;;;;;;;;;;;;;5056239;28;20008;-60
2022/12/05 12:32:40;;;;;;;;;;;;;;;;;;4974253;28;19969;-59
2022/12/05 12:35:05;;;;;;;;;;;;;;;;;;4953686;28;19958;-59
2022/12/05 12:37:31;;;;;;;;;;;;;;;;;;5060443;28;20008;-60
2022/12/05 12:39:57;;;;;;;;;;;;;;;;;;5046735;28;19928;-61
2022/12/05 12:42:25;;;;;;;;;;;;;;;;;;4988542;28;19920;-60
2022/12/05 12:44:51;;;;;;;;;;;;;;;;;;4972996;28;19927;-60
2022/12/05 12:47:17;;;;;;;;;;;;;;;;;;4973462;28;19924;-61
2022/12/05 12:49:42;;;;;;;;;;;;;;;;;;5055614;28;19946;-61
2022/12/05 12:52:08;;;;;;;;;;;;;;;;;;4975944;28;20193;-60
2022/12/05 12:54:35;;;;;;;;;;;;;;;;;;5063869;28;20432;-61
2022/12/05 12:57:04;;;;;;;;;;;;;;;;;;4972068;28;20387;-60
2022/12/05 12:59:34;;;;;;;;;;;;;;;;;;4973419;28;20283;-61
2022/12/05 13:02:00;;;;;;;;;;;;;;;;;;5064816;28;19916;-62
2022/12/05 13:04:28;;;;;;;;;;;;;;;;;;4975467;28;19927;-62
2022/12/05 13:06:53;;;;;;;;;;;;;;;;;;4978277;28;20047;-62
2022/12/05 13:09:21;;;;;;;;;;;;;;;;;;5055029;28;20312;-61
2022/12/05 13:11:47;;;;;;;;;;;;;;;;;;5017929;28;19932;-60
2022/12/05 13:14:14;;;;;;;;;;;;;;;;;;5034100;28;20375;-61
2022/12/05 13:16:40;;;;;;;;;;;;;;;;;;5037616;28;19941;-62
2022/12/05 13:19:08;;;;;;;;;;;;;;;;;;5042118;28;20864;-60
2022/12/05 13:21:34;;;;;;;;;;;;;;;;;;5027229;28;19990;-61
2022/12/05 13:24:02;;;;;;;;;;;;;;;;;;5040375;28;19920;-60
2022/12/05 13:26:27;;;;;;;;;;;;;;;;;;5035998;28;19916;-62
2022/12/05 13:28:53;;;;;;;;;;;;;;;;;;5040851;28;20224;-62
2022/12/05 13:31:21;;;;;;;;;;;;;;;;;;5033289;28;20051;-62
2022/12/05 13:33:46;;;;;;;;;;;;;;;;;;5007142;28;19924;-62
2022/12/05 13:44:29;;;;;;;;;;;;;;;;;;5041998;28;20382;-60
2022/12/05 13:46:54;;;;;;;;;;;;;;;;;;5041190;28;19921;-59
2022/12/05 13:49:20;;;;;;;;;;;;;;;;;;5040774;28;20287;-60
2022/12/05 13:51:45;;;;;;;;;;;;;;;;;;5038592;28;19924;-59
2022/12/05 13:54:13;;;;;;;;;;;;;;;;;;5039916;28;20020;-60
2022/12/05 13:56:38;;;;;;;;;;;;;;;;;;5032263;28;20717;-61
2022/12/05 13:59:06;;;;;;;;;;;;;;;;;;5017194;28;20106;-60
2022/12/05 14:01:34;;;;;;;;;;;;;;;;;;5020482;28;19920;-59
2022/12/05 14:03:59;;;;;;;;;;;;;;;;;;5018800;28;20403;-60
2022/12/05 14:06:27;;;;;;;;;;;;;;;;;;5022107;28;20019;-62
2022/12/05 14:08:55;;;;;;;;;;;;;;;;;;5022860;28;19921;-60
2022/12/05 14:11:20;;;;;;;;;;;;;;;;;;5042281;28;20638;-60
2022/12/05 14:13:45;;;;;;;;;;;;;;;;;;5056980;28;19924;-61
2022/12/05 14:16:14;;;;;;;;;;;;;;;;;;5037246;28;19927;-60
2022/12/05 14:18:42;;;;;;;;;;;;;;;;;;5057806;28;20105;-60
2022/12/05 14:21:07;;;;;;;;;;;;;;;;;;5040734;28;19966;-60
2022/12/05 14:23:35;;;;;;;;;;;;;;;;;;5056467;28;20650;-60
2022/12/05 14:26:01;;;;;;;;;;;;;;;;;;5038422;28;20583;-60
2022/12/05 14:28:26;;;;;;;;;;;;;;;;;;5035592;28;19920;-59
2022/12/05 14:30:52;;;;;;;;;;;;;;;;;;5029404;28;20351;-60
2022/12/05 14:33:17;;;;;;;;;;;;;;;;;;5035982;28;20355;-60
2022/12/05 14:35:45;;;;;;;;;;;;;;;;;;5035142;28;20384;-61
2022/12/05 14:38:15;;;;;;;;;;;;;;;;;;5036354;28;19916;-60
2022/12/05 14:40:41;;;;;;;;;;;;;;;;;;5053074;28;20058;-61
2022/12/05 14:43:09;;;;;;;;;;;;;;;;;;5056542;28;21072;-60
2022/12/05 14:45:37;;;;;;;;;;;;;;;;;;5056171;28;19928;-60
2022/12/05 14:48:02;;;;;;;;;;;;;;;;;;5041084;28;19920;-60
2022/12/05 14:50:30;;;;;;;;;;;;;;;;;;5027581;28;20447;-61
2022/12/05 14:52:55;;;;;;;;;;;;;;;;;;5020490;28;20032;-60
2022/12/05 14:55:21;;;;;;;;;;;;;;;;;;5021908;28;19924;-59
2022/12/05 14:57:46;;;;;;;;;;;;;;;;;;5037050;28;19931;-60
2022/12/05 15:00:11;;;;;;;;;;;;;;;;;;5051016;28;19931;-60
2022/12/05 15:02:37;;;;;;;;;;;;;;;;;;5041473;28;20412;-60
2022/12/05 15:05:04;;;;;;;;;;;;;;;;;;5043664;28;19948;-61
2022/12/05 15:07:32;;;;;;;;;;;;;;;;;;5034727;28;19947;-60
2022/12/05 15:10:00;;;;;;;;;;;;;;;;;;4999314;28;19929;-60
2022/12/05 15:12:26;;;;;;;;;;;;;;;;;;4955260;28;20034;-60
2022/12/05 15:14:52;;;;;;;;;;;;;;;;;;4954122;28;19921;-61
2022/12/05 15:17:17;;;;;;;;;;;;;;;;;;4958149;28;19934;-60
2022/12/05 15:19:42;;;;;;;;;;;;;;;;;;4956261;28;20026;-61
2022/12/05 15:22:07;;;;;;;;;;;;;;;;;;4959347;28;19930;-61
2022/12/05 15:24:33;;;;;;;;;;;;;;;;;;4952299;28;19987;-61
2022/12/05 15:27:01;;;;;;;;;;;;;;;;;;4959911;28;20365;-61
2022/12/05 15:29:29;;;;;;;;;;;;;;;;;;4951637;28;19962;-60
2022/12/05 15:31:54;;;;;;;;;;;;;;;;;;4942472;28;19999;-61
2022/12/05 15:34:21;;;;;;;;;;;;;;;;;;4956468;28;19922;-61
2022/12/05 15:36:46;;;;;;;;;;;;;;;;;;4958403;28;19926;-60
2022/12/05 15:39:12;;;;;;;;;;;;;;;;;;4952944;28;20507;-61
2022/12/05 15:41:40;;;;;;;;;;;;;;;;;;4955958;28;19957;-60
2022/12/05 15:44:08;;;;;;;;;;;;;;;;;;4951854;28;20009;-61
2022/12/05 15:46:35;;;;;;;;;;;;;;;;;;4949246;28;19922;-61
2022/12/05 15:49:00;;;;;;;;;;;;;;;;;;4956115;28;20477;-61
2022/12/05 15:51:25;;;;;;;;;;;;;;;;;;4960602;28;19925;-62
2022/12/05 15:53:51;;;;;;;;;;;;;;;;;;4957730;28;19936;-61
2022/12/05 15:56:16;;;;;;;;;;;;;;;;;;4956205;28;19930;-62
2022/12/05 15:58:45;;;;;;;;;;;;;;;;;;4954129;28;20046;-61
2022/12/05 16:01:10;;;;;;;;;;;;;;;;;;4932488;28;20022;-61
2022/12/05 16:03:35;;;;;;;;;;;;;;;;;;4958932;28;19930;-61
2022/12/05 16:06:01;;;;;;;;;;;;;;;;;;4955820;28;21697;-62
2022/12/05 16:08:39;;;;;;;;;;;;;;;;;;4953906;28;20549;-61
2022/12/05 16:11:07;;;;;;;;;;;;;;;;;;4952750;28;20612;-61
2022/12/05 16:13:35;;;;;;;;;;;;;;;;;;4942618;28;19926;-59
2022/12/05 16:16:02;;;;;;;;;;;;;;;;;;4953906;28;19930;-60
2022/12/05 16:18:27;;;;;;;;;;;;;;;;;;4954530;28;20468;-60
2022/12/05 16:20:53;;;;;;;;;;;;;;;;;;4958653;28;19918;-60
2022/12/05 16:23:18;;;;;;;;;;;;;;;;;;4954021;28;20564;-61
2022/12/05 16:25:43;;;;;;;;;;;;;;;;;;4935650;28;20104;-60
2022/12/05 16:28:11;;;;;;;;;;;;;;;;;;4955422;28;20309;-60
2022/12/05 16:30:37;;;;;;;;;;;;;;;;;;4958020;28;20543;-61
2022/12/05 16:33:05;;;;;;;;;;;;;;;;;;4959778;28;19973;-63
2022/12/05 16:35:33;;;;;;;;;;;;;;;;;;4959597;28;20036;-61
2022/12/05 16:37:58;;;;;;;;;;;;;;;;;;4960159;28;19975;-60
2022/12/05 16:40:24;;;;;;;;;;;;;;;;;;4962528;28;20253;-61
2022/12/05 16:42:52;;;;;;;;;;;;;;;;;;4963365;28;20382;-61
2022/12/05 16:45:18;;;;;;;;;;;;;;;;;;4960915;28;19933;-61
2022/12/05 16:47:43;;;;;;;;;;;;;;;;;;4953739;28;20490;-61
2022/12/05 16:50:08;;;;;;;;;;;;;;;;;;4963122;28;19929;-61
2022/12/05 16:52:33;;;;;;;;;;;;;;;;;;4964762;28;19917;-61